createdAt,value
2023-02-15T00:01:09.476Z,21.17
2023-02-15T00:03:54.950Z,23.40
2023-02-15T00:06:40.458Z,22.37
2023-02-15T00:09:25.792Z,26.43
2023-02-15T00:12:11.600Z,19.17
2023-02-15T00:14:57.130Z,24.03
2023-02-15T00:17:42.731Z,21.43
2023-02-15T00:20:28.239Z,28.27
2023-02-15T00:23:13.720Z,22.80
2023-02-15T00:26:06.466Z,25.47
2023-02-15T00:28:52.179Z,19.37
2023-02-15T00:31:38.204Z,25.23
2023-02-15T00:34:26.807Z,21.00
2023-02-15T00:37:12.211Z,25.37
2023-02-15T00:39:57.707Z,20.03
2023-02-15T00:42:43.230Z,21.33
2023-02-15T00:45:29.012Z,20.03
2023-02-15T00:48:14.362Z,20.90
2023-02-15T00:51:00.954Z,21.70
2023-02-15T00:53:46.424Z,22.90
2023-02-15T00:56:31.719Z,26.10
2023-02-15T00:59:17.067Z,21.33
2023-02-15T01:02:02.677Z,25.07
2023-02-15T01:04:48.393Z,22.50
2023-02-15T01:07:33.844Z,20.27
2023-02-15T01:10:19.743Z,23.47
2023-02-15T01:13:05.238Z,23.93
2023-02-15T01:15:57.008Z,23.60
2023-02-15T01:18:43.111Z,23.30
2023-02-15T01:21:28.976Z,22.97
2023-02-15T01:24:15.044Z,22.40
2023-02-15T01:27:02.150Z,21.83
2023-02-15T01:29:48.542Z,20.93
2023-02-15T01:32:34.083Z,23.40
2023-02-15T01:35:19.924Z,23.67
2023-02-15T01:38:05.194Z,21.40
2023-02-15T01:40:54.691Z,24.27
2023-02-15T01:43:46.919Z,20.83
2023-02-15T01:46:43.777Z,21.93
2023-02-15T01:49:29.438Z,19.07
2023-02-15T01:52:18.568Z,22.57
2023-02-15T01:55:07.169Z,22.47
2023-02-15T01:57:53.740Z,21.47
2023-02-15T02:00:39.059Z,20.77
2023-02-15T02:03:39.827Z,19.47
2023-02-15T02:06:27.059Z,21.40
2023-02-15T02:09:13.794Z,25.00
2023-02-15T02:11:59.848Z,20.87
2023-02-15T02:14:48.174Z,23.33
2023-02-15T02:17:40.152Z,20.70
2023-02-15T02:20:39.022Z,18.97
2023-02-15T02:23:39.392Z,20.87
2023-02-15T02:26:27.746Z,19.53
2023-02-15T02:30:06.286Z,22.63
2023-02-15T02:33:42.184Z,21.00
2023-02-15T02:36:49.353Z,20.43
2023-02-15T02:39:56.747Z,20.87
2023-02-15T02:43:09.368Z,21.77
2023-02-15T02:46:04.330Z,19.63
2023-02-15T02:48:50.924Z,16.63
2023-02-15T02:51:36.600Z,15.27
2023-02-15T02:54:22.026Z,16.57
2023-02-15T02:57:10.331Z,23.30
2023-02-15T02:59:58.423Z,21.03
2023-02-15T03:02:48.465Z,18.93
2023-02-15T03:05:36.673Z,15.27
2023-02-15T03:08:25.408Z,19.60
2023-02-15T03:11:12.746Z,20.93
2023-02-15T03:13:59.335Z,20.97
2023-02-15T03:16:48.736Z,20.53
2023-02-15T03:19:37.928Z,19.37
2023-02-15T03:23:05.947Z,17.33
2023-02-15T03:25:57.392Z,17.83
2023-02-15T03:28:46.615Z,17.67
2023-02-15T03:31:35.896Z,19.40
2023-02-15T03:34:21.774Z,17.33
2023-02-15T03:37:33.314Z,18.53
2023-02-15T03:40:50.657Z,21.47
2023-02-15T03:43:53.090Z,21.07
2023-02-15T03:46:48.842Z,17.17
2023-02-15T03:49:46.753Z,22.30
2023-02-15T03:52:34.935Z,18.57
2023-02-15T03:55:20.433Z,20.10
2023-02-15T03:58:24.366Z,16.37
2023-02-15T04:01:44.454Z,20.40
2023-02-15T04:04:33.329Z,16.30
2023-02-15T04:07:18.803Z,18.40
2023-02-15T04:10:22.984Z,16.27
2023-02-15T04:13:08.349Z,19.50
2023-02-15T04:16:05.091Z,15.17
2023-02-15T04:19:09.514Z,17.80
2023-02-15T04:22:13.380Z,15.97
2023-02-15T04:25:10.508Z,17.57
2023-02-15T04:27:56.031Z,18.90
2023-02-15T04:30:41.448Z,20.07
2023-02-15T04:33:26.863Z,18.50
2023-02-15T04:36:12.471Z,16.67
2023-02-15T04:38:57.723Z,16.40
2023-02-15T04:41:43.869Z,18.80
2023-02-15T04:44:29.230Z,15.63
2023-02-15T04:47:15.017Z,19.40
2023-02-15T04:50:00.446Z,19.33
2023-02-15T04:52:45.705Z,16.97
2023-02-15T04:55:31.077Z,17.07
2023-02-15T04:58:16.482Z,16.83
2023-02-15T05:01:02.773Z,19.50
2023-02-15T05:03:48.057Z,15.23
2023-02-15T05:06:33.460Z,18.37
2023-02-15T05:09:19.188Z,18.80
2023-02-15T05:12:04.833Z,18.37
2023-02-15T05:14:50.218Z,15.00
2023-02-15T05:17:35.617Z,16.93
2023-02-15T05:20:21.302Z,17.37
2023-02-15T05:23:06.851Z,14.93
2023-02-15T05:26:11.085Z,16.00
2023-02-15T05:28:56.344Z,14.83
2023-02-15T05:31:42.297Z,14.87
2023-02-15T05:34:28.445Z,18.47
2023-02-15T05:37:14.044Z,18.60
2023-02-15T05:39:59.358Z,18.90
2023-02-15T05:42:45.105Z,20.00
2023-02-15T05:45:31.110Z,15.13
2023-02-15T05:48:17.768Z,13.10
2023-02-15T05:51:09.219Z,15.63
2023-02-15T05:53:54.572Z,18.03
2023-02-15T05:56:40.046Z,19.13
2023-02-15T05:59:25.529Z,15.70
2023-02-15T06:02:11.189Z,14.47
2023-02-15T06:04:56.340Z,14.10
2023-02-15T06:07:45.862Z,15.77
2023-02-15T06:10:31.486Z,14.13
2023-02-15T06:13:17.083Z,18.17
2023-02-15T06:16:03.127Z,14.20
2023-02-15T06:18:48.840Z,15.60
2023-02-15T06:21:34.284Z,15.70
2023-02-15T06:24:19.690Z,18.83
2023-02-15T06:27:05.244Z,14.73
2023-02-15T06:29:50.684Z,13.80
2023-02-15T06:32:37.064Z,18.53
2023-02-15T06:35:23.014Z,16.83
2023-02-15T06:38:08.833Z,18.80
2023-02-15T06:40:54.188Z,14.73
2023-02-15T06:43:41.001Z,18.37
2023-02-15T06:46:26.903Z,16.37
2023-02-15T06:49:12.399Z,18.40
2023-02-15T06:51:58.127Z,17.17
2023-02-15T06:54:43.401Z,15.87
2023-02-15T06:57:28.696Z,17.20
2023-02-15T07:00:14.999Z,14.03
2023-02-15T07:03:00.971Z,14.20
2023-02-15T07:05:46.576Z,17.30
2023-02-15T07:08:32.171Z,18.83
2023-02-15T07:11:52.899Z,15.40
2023-02-15T07:14:38.199Z,16.70
2023-02-15T07:17:38.807Z,18.37
2023-02-15T07:20:25.170Z,15.00
2023-02-15T07:23:10.717Z,18.57
2023-02-15T07:28:39.874Z,17.87
2023-02-15T07:31:25.298Z,14.13
2023-02-15T07:34:10.972Z,16.90
2023-02-15T07:36:56.506Z,22.07
2023-02-15T07:39:41.831Z,20.90
2023-02-15T07:42:27.374Z,27.07
2023-02-15T07:45:13.540Z,21.17
2023-02-15T07:47:58.783Z,15.53
2023-02-15T07:50:44.320Z,16.63
2023-02-15T07:53:31.079Z,13.70
2023-02-15T07:56:16.717Z,15.90
2023-02-15T07:59:04.171Z,14.00
2023-02-15T08:01:49.690Z,13.67
2023-02-15T08:04:35.140Z,16.80
2023-02-15T08:07:20.707Z,16.70
2023-02-15T08:10:07.115Z,16.30
2023-02-15T08:12:52.362Z,17.67
2023-02-15T08:15:38.009Z,14.07
2023-02-15T08:18:23.640Z,13.33
2023-02-15T08:21:09.762Z,14.27
2023-02-15T08:23:56.055Z,12.97
2023-02-15T08:26:42.593Z,13.20
2023-02-15T08:29:29.851Z,15.43
2023-02-15T08:32:15.441Z,13.83
2023-02-15T08:35:00.795Z,10.10
2023-02-15T08:37:46.503Z,12.60
2023-02-15T08:40:31.772Z,12.10
2023-02-15T08:43:17.333Z,14.03
2023-02-15T08:46:03.025Z,11.00
2023-02-15T08:48:48.631Z,12.60
2023-02-15T08:51:36.693Z,13.67
2023-02-15T08:54:22.876Z,13.93
2023-02-15T08:57:08.402Z,14.57
2023-02-15T08:59:56.001Z,14.00
2023-02-15T09:02:41.371Z,13.27
2023-02-15T09:05:26.737Z,11.73
2023-02-15T09:08:12.407Z,15.00
2023-02-15T09:11:12.471Z,11.80
2023-02-15T09:14:02.392Z,11.80
2023-02-15T09:16:50.358Z,10.43
2023-02-15T09:19:36.176Z,14.50
2023-02-15T09:22:21.569Z,16.13
2023-02-15T09:25:07.572Z,12.33
2023-02-15T09:27:53.312Z,10.23
2023-02-15T09:30:38.697Z,14.37
2023-02-15T09:33:26.186Z,11.23
2023-02-15T09:36:33.040Z,11.47
2023-02-15T09:39:26.312Z,9.60
2023-02-15T09:42:23.462Z,9.83
2023-02-15T09:45:23.179Z,14.90
2023-02-15T09:48:35.439Z,8.00
2023-02-15T09:51:55.899Z,9.03
2023-02-15T09:54:47.722Z,15.80
2023-02-15T09:58:03.585Z,8.77
2023-02-15T10:01:03.678Z,7.73
2023-02-15T10:03:56.543Z,10.63
2023-02-15T10:07:02.761Z,10.30
2023-02-15T10:10:06.079Z,10.60
2023-02-15T10:13:03.349Z,9.33
2023-02-15T10:16:03.982Z,9.87
2023-02-15T10:19:02.352Z,9.30
2023-02-15T10:22:13.386Z,6.23
2023-02-15T10:25:24.799Z,9.93
2023-02-15T10:28:21.617Z,6.13
2023-02-15T10:31:28.314Z,7.50
2023-02-15T10:34:29.117Z,12.43
2023-02-15T10:37:41.224Z,8.97
2023-02-15T10:40:42.329Z,9.07
2023-02-15T10:43:30.721Z,8.27
2023-02-15T10:46:34.634Z,10.40
2023-02-15T10:49:31.068Z,8.68
2023-02-15T10:52:33.385Z,10.02
2023-02-15T10:55:25.227Z,9.03
2023-02-15T10:58:27.807Z,12.10
2023-02-15T11:01:35.229Z,9.50
2023-02-15T11:04:51.941Z,8.65
2023-02-15T11:07:44.071Z,8.60
2023-02-15T11:10:48.050Z,8.52
2023-02-15T11:13:39.387Z,8.32
2023-02-15T11:16:55.960Z,12.55
2023-02-15T11:19:58.260Z,10.50
2023-02-15T11:22:43.704Z,9.50
2023-02-15T11:25:35.293Z,14.40
2023-02-15T11:28:28.570Z,10.85
2023-02-15T11:31:18.692Z,12.52
2023-02-15T11:34:13.172Z,13.50
2023-02-15T11:37:04.812Z,11.10
2023-02-15T11:39:55.627Z,14.77
2023-02-15T11:42:42.799Z,13.05
2023-02-15T11:45:35.414Z,9.32
2023-02-15T11:48:20.655Z,12.93
2023-02-15T11:51:06.782Z,12.82
2023-02-15T11:53:52.966Z,14.18
2023-02-15T11:56:38.616Z,9.65
2023-02-15T11:59:35.265Z,12.98
2023-02-15T12:02:23.182Z,12.93
2023-02-15T12:05:15.855Z,13.60
2023-02-15T12:08:18.988Z,10.82
2023-02-15T12:11:16.475Z,11.57
2023-02-15T12:14:06.206Z,11.23
2023-02-15T12:16:57.509Z,12.57
2023-02-15T12:19:42.774Z,10.55
2023-02-15T12:22:34.851Z,15.85
2023-02-15T12:25:28.771Z,9.05
2023-02-15T12:28:34.215Z,10.60
2023-02-15T12:31:31.774Z,12.13
2023-02-15T12:34:40.469Z,10.25
2023-02-15T12:37:29.650Z,9.75
2023-02-15T12:40:24.703Z,12.80
2023-02-15T12:43:28.115Z,11.27
2023-02-15T12:46:27.592Z,13.30
2023-02-15T12:49:21.319Z,11.40
2023-02-15T12:52:26.092Z,11.75
2023-02-15T12:55:26.484Z,12.45
2023-02-15T12:58:20.841Z,12.75
2023-02-15T13:01:25.394Z,12.60
2023-02-15T13:07:14.730Z,13.13
2023-02-15T13:10:00.095Z,12.45
2023-02-15T13:12:48.322Z,11.10
2023-02-15T13:15:47.568Z,10.32
2023-02-15T13:18:37.590Z,12.20
2023-02-15T13:21:26.728Z,12.60
2023-02-15T13:24:30.560Z,12.52
2023-02-15T13:27:21.201Z,11.77
2023-02-15T13:30:32.213Z,11.45
2023-02-15T13:33:27.232Z,10.13
2023-02-15T13:36:35.871Z,11.75
2023-02-15T13:39:40.534Z,9.65
2023-02-15T13:42:48.638Z,12.20
2023-02-15T13:45:45.341Z,10.63
2023-02-15T13:48:47.191Z,9.07
2023-02-15T13:51:47.065Z,9.93
2023-02-15T13:55:10.087Z,9.50
2023-02-15T13:58:08.098Z,11.35
2023-02-15T14:01:09.859Z,11.00
2023-02-15T14:03:57.972Z,8.30
2023-02-15T14:07:18.602Z,10.93
2023-02-15T14:10:20.758Z,7.90
2023-02-15T14:13:52.113Z,9.38
2023-02-15T14:17:06.252Z,12.82
2023-02-15T14:20:18.196Z,10.65
2023-02-15T14:23:12.143Z,11.93
2023-02-15T14:26:02.758Z,10.90
2023-02-15T14:29:02.108Z,9.13
2023-02-15T14:31:53.264Z,11.60
2023-02-15T14:35:00.303Z,10.07
2023-02-15T14:37:59.863Z,11.80
2023-02-15T14:41:04.586Z,11.50
2023-02-15T14:44:29.759Z,12.13
2023-02-15T14:47:39.624Z,9.85
2023-02-15T14:50:31.106Z,10.57
2023-02-15T14:53:23.358Z,14.85
2023-02-15T14:56:11.732Z,12.90
2023-02-15T14:59:00.214Z,15.75
2023-02-15T15:02:04.834Z,12.05
2023-02-15T15:05:07.117Z,10.65
2023-02-15T15:07:55.572Z,15.48
2023-02-15T15:10:46.956Z,13.02
2023-02-15T15:13:32.143Z,12.07
2023-02-15T15:16:29.594Z,12.60
2023-02-15T15:19:54.040Z,11.75
2023-02-15T15:22:39.494Z,13.20
2023-02-15T15:25:36.479Z,14.70
2023-02-15T15:28:34.157Z,14.82
2023-02-15T15:31:32.335Z,12.10
2023-02-15T15:34:35.539Z,14.63
2023-02-15T15:37:47.686Z,19.27
2023-02-15T15:40:36.100Z,24.40
2023-02-15T15:43:29.045Z,20.02
2023-02-15T15:46:23.327Z,29.52
2023-02-15T15:51:56.072Z,23.85
2023-02-15T15:54:43.116Z,26.30
2023-02-15T15:57:33.839Z,23.15
2023-02-15T16:00:40.793Z,25.33
2023-02-15T16:03:28.053Z,24.63
2023-02-15T16:06:15.869Z,28.40
2023-02-15T16:09:21.632Z,27.13
2023-02-15T16:12:17.004Z,25.83
2023-02-15T16:15:27.493Z,25.83
2023-02-15T16:18:20.981Z,26.88
2023-02-15T16:21:06.309Z,26.92
2023-02-15T16:24:19.951Z,26.38
2023-02-15T16:27:08.047Z,29.35
2023-02-15T16:29:53.665Z,28.80
2023-02-15T16:32:39.224Z,29.83
2023-02-15T16:35:24.943Z,28.48
2023-02-15T16:38:14.469Z,30.48
2023-02-15T16:41:02.409Z,32.47
2023-02-15T16:43:50.437Z,31.77
2023-02-15T16:46:43.851Z,29.10
2023-02-15T16:49:30.634Z,30.10
2023-02-15T16:52:22.332Z,30.75
2023-02-15T16:55:07.739Z,29.88
2023-02-15T16:57:58.171Z,30.33
2023-02-15T17:00:43.853Z,32.63
2023-02-15T17:03:30.351Z,31.27
2023-02-15T17:06:27.751Z,27.58
2023-02-15T17:09:23.318Z,30.88
2023-02-15T17:12:10.546Z,29.58
2023-02-15T17:14:56.380Z,33.75
2023-02-15T17:17:42.965Z,31.55
2023-02-15T17:20:29.288Z,29.58
2023-02-15T17:23:32.046Z,27.85
2023-02-15T17:26:24.007Z,30.40
2023-02-15T17:29:38.592Z,29.55
2023-02-15T17:32:30.312Z,26.00
2023-02-15T17:35:26.682Z,28.00
2023-02-15T17:38:21.424Z,25.70
2023-02-15T17:43:52.670Z,25.60
2023-02-15T17:46:38.556Z,28.80
2023-02-15T17:49:34.906Z,29.58
2023-02-15T17:52:20.154Z,33.55
2023-02-15T17:55:32.223Z,30.30
2023-02-15T17:58:19.728Z,27.67
2023-02-15T18:01:33.509Z,28.27
2023-02-15T18:04:38.023Z,29.48
2023-02-15T18:07:42.536Z,33.10
2023-02-15T18:10:46.212Z,31.80
2023-02-15T18:13:31.450Z,30.73
2023-02-15T18:16:22.317Z,30.20
2023-02-15T18:19:14.120Z,29.40
2023-02-15T18:21:59.643Z,27.95
2023-02-15T18:24:45.988Z,27.25
2023-02-15T18:27:31.308Z,27.30
2023-02-15T18:30:21.823Z,30.73
2023-02-15T18:33:07.098Z,31.27
2023-02-15T18:35:52.919Z,34.83
2023-02-15T18:38:38.412Z,30.13
2023-02-15T18:41:24.360Z,26.97
2023-02-15T18:44:13.104Z,27.07
2023-02-15T18:46:58.790Z,29.40
2023-02-15T18:49:44.053Z,30.23
2023-02-15T18:52:34.693Z,31.03
2023-02-15T18:55:28.276Z,25.87
2023-02-15T18:58:17.537Z,30.47
2023-02-15T19:01:03.675Z,27.30
2023-02-15T19:03:51.367Z,26.57
2023-02-15T19:06:40.271Z,26.63
2023-02-15T19:09:27.809Z,27.40
2023-02-15T19:12:13.859Z,26.47
2023-02-15T19:14:59.445Z,25.53
2023-02-15T19:17:45.166Z,30.73
2023-02-15T19:20:35.033Z,28.13
2023-02-15T19:23:24.647Z,26.13
2023-02-15T19:26:10.960Z,28.47
2023-02-15T19:28:56.291Z,27.63
2023-02-15T19:31:42.330Z,24.83
2023-02-15T19:34:27.899Z,24.07
2023-02-15T19:37:24.055Z,29.03
2023-02-15T19:40:28.997Z,25.77
2023-02-15T19:43:20.193Z,28.40
2023-02-15T19:46:05.994Z,33.33
2023-02-15T19:48:53.486Z,24.97
2023-02-15T19:51:39.734Z,24.00
2023-02-15T19:54:31.570Z,28.30
2023-02-15T19:57:17.226Z,28.67
2023-02-15T20:00:21.112Z,25.70
2023-02-15T20:03:07.425Z,27.77
2023-02-15T20:05:53.039Z,26.10
2023-02-15T20:08:38.304Z,28.30
2023-02-15T20:11:24.136Z,23.43
2023-02-15T20:14:14.088Z,24.67
2023-02-15T20:16:59.274Z,25.57
2023-02-15T20:19:46.140Z,27.70
2023-02-15T20:22:31.329Z,27.57
2023-02-15T20:25:22.033Z,32.00
2023-02-15T20:28:23.248Z,26.97
2023-02-15T20:31:15.528Z,31.70
2023-02-15T20:34:01.308Z,27.23
2023-02-15T20:36:46.762Z,27.97
2023-02-15T20:39:34.404Z,32.23
2023-02-15T20:42:19.827Z,28.00
2023-02-15T20:45:16.052Z,28.57
2023-02-15T20:48:02.117Z,28.90
2023-02-15T20:50:47.603Z,31.00
2023-02-15T20:53:33.170Z,30.50
2023-02-15T20:56:23.903Z,29.40
2023-02-15T20:59:35.733Z,32.60
2023-02-15T21:02:25.790Z,27.47
2023-02-15T21:05:19.014Z,24.93
2023-02-15T21:08:15.432Z,27.50
2023-02-15T21:11:01.912Z,28.00
2023-02-15T21:13:49.086Z,28.27
2023-02-15T21:16:34.651Z,25.30
2023-02-15T21:19:23.034Z,25.90
2023-02-15T21:22:12.589Z,24.43
2023-02-15T21:24:58.204Z,24.87
2023-02-15T21:27:44.419Z,25.60
2023-02-15T21:30:30.048Z,29.60
2023-02-15T21:33:16.255Z,24.83
2023-02-15T21:36:02.789Z,26.70
2023-02-15T21:38:48.623Z,27.63
2023-02-15T21:41:53.014Z,24.67
2023-02-15T21:44:57.488Z,28.33
2023-02-15T21:47:51.579Z,24.65
2023-02-15T21:50:55.402Z,26.63
2023-02-15T21:53:48.531Z,22.57
2023-02-15T21:56:34.131Z,20.83
2023-02-15T21:59:20.130Z,21.43
2023-02-15T22:02:30.994Z,25.70
2023-02-15T22:05:19.386Z,32.93
2023-02-15T22:08:13.512Z,26.67
2023-02-15T22:10:59.089Z,23.75
2023-02-15T22:13:45.556Z,24.37
2023-02-15T22:16:30.791Z,24.63
2023-02-15T22:19:16.423Z,22.67
2023-02-15T22:22:01.922Z,23.30
2023-02-15T22:24:47.756Z,23.90
2023-02-15T22:27:38.958Z,27.93
2023-02-15T22:30:30.848Z,23.63
2023-02-15T22:33:28.446Z,21.43
2023-02-15T22:36:28.719Z,27.57
2023-02-15T22:39:13.960Z,24.47
2023-02-15T22:41:59.682Z,26.70
2023-02-15T22:44:45.058Z,29.07
2023-02-15T22:47:32.214Z,26.27
2023-02-15T22:50:23.908Z,23.57
2023-02-15T22:53:09.780Z,27.23
2023-02-15T22:55:55.910Z,24.13
2023-02-15T22:58:41.430Z,23.53
2023-02-15T23:01:35.391Z,22.97
2023-02-15T23:04:24.401Z,23.05
2023-02-15T23:07:14.617Z,23.67
2023-02-15T23:10:00.165Z,24.87
2023-02-15T23:13:04.330Z,22.40
2023-02-15T23:15:52.908Z,19.53
2023-02-15T23:18:40.552Z,25.70
2023-02-15T23:21:29.754Z,19.27
2023-02-15T23:24:20.440Z,21.23
2023-02-15T23:27:24.502Z,20.67
2023-02-15T23:30:14.289Z,24.43
2023-02-15T23:32:59.925Z,19.17
2023-02-15T23:35:45.212Z,20.50
2023-02-15T23:38:32.584Z,18.27
2023-02-15T23:41:22.985Z,24.73
2023-02-15T23:44:10.898Z,18.77
2023-02-15T23:46:56.624Z,17.47
2023-02-15T23:49:42.163Z,21.07
2023-02-15T23:52:27.642Z,17.77
2023-02-15T23:55:14.389Z,20.83
2023-02-15T23:57:59.764Z,18.90
